• Join FlightAware (Why Join?)
  • Login
  • US Flag 
10:23AM EDT


 

Airport Tracker/Info


-or-


 

Live Flight TrackerFlight Track Log ✈ DAL5846 ✈ 31-Oct-2013 ✈ KLAX - KSFO

Flight Track Log - Related Links

Times and Time Zones

All times are in EDT time to prevent confusion due to time zone crossing. See the DAL5846 flight status page for this flight to view local times or setup timezone preferences in your user account.

Time Position Orientation Groundspeed Altitude Reporting Facility
EDT Latitude Longitude Course Direction KTS MPH feet Rate Location/Type
06:18PM 33.9333 -118.4500 301° West 185 213 2,100  Level Southern California TRACON
06:19PM 33.9236 -118.5278 261° West 234 269 4,700 3,180 Climbing Los Angeles Center
06:20PM 34.2146 -118.6851 320° Northwest  Level Estimated
06:20PM 33.9136 -118.6289 263° West 281 323 8,400  Level Los Angeles Center
06:21PM 34.2826 -118.7546 298° West  Level Estimated
06:21PM 33.9011 -118.7278 261° West 300 345 11,100  Level Los Angeles Center
06:22PM 34.2686 -118.8609 261° West  Level FlightAware Approximate
06:22PM 33.8858 -118.8539 262° West 356 410 13,200  Level Los Angeles Center
06:23PM 34.3374 -118.9292 301° West  Level Estimated
06:23PM 33.9053 -118.9747 281° West 373 429 15,600  Level Los Angeles Center
06:24PM 33.9758 -119.0681 312° West 376 433 18,300 2,460 Climbing Los Angeles Center
06:25PM 34.0458 -119.1603 313° West 372 428 20,700 1,860 Climbing Los Angeles Center
06:26PM 34.1214 -119.2592 313° West 400 460 22,200 1,620 Climbing Los Angeles Center
06:27PM 34.1994 -119.3633 312° West 417 480 24,100 1,920 Climbing Los Angeles Center
06:28PM 34.2956 -119.4900 313° West 423 487 26,200 1,560 Climbing Los Angeles Center
06:29PM 34.3778 -119.6003 312° West 437 503 27,400 1,200 Climbing Los Angeles Center
06:30PM 34.4625 -119.7128 312° West 447 514 28,700 1,200 Climbing Los Angeles Center
06:31PM 34.5525 -119.8208 315° West 453 521 30,000 600 Climbing Los Angeles Center
06:32PM 34.6522 -119.9253 319° Northwest 466 536 30,000  Level Los Angeles Center
06:33PM 34.7519 -120.0350 318° Northwest 479 551 30,000  Level Los Angeles Center
06:34PM 34.8594 -120.1525 318° Northwest 480 552 30,000  Level Los Angeles Center
06:35PM 34.9567 -120.2594 318° Northwest 477 549 30,000  Level Los Angeles Center
06:36PM 35.0536 -120.3678 318° Northwest 478 550 30,000  Level Los Angeles Center
06:37PM 35.1703 -120.4967 318° Northwest 475 547 30,000  Level Los Angeles Center
06:38PM 35.2664 -120.6050 317° Northwest 474 545 30,000  Level Los Angeles Center
06:39PM 35.3650 -120.7125 318° Northwest 475 547 30,000  Level Los Angeles Center
06:40PM 35.4614 -120.8217 317° Northwest 474 545 30,000  Level Los Angeles Center
06:41PM 35.5581 -120.9306 318° Northwest 472 543 30,000  Level Los Angeles Center
06:42PM 35.6719 -121.0392 322° Northwest 416 479 30,000  Level Los Angeles Center
06:43PM 35.7700 -121.1211 326° Northwest 425 489 30,000  Level Los Angeles Center
06:45PM 35.8669 -121.2056 325° Northwest 426 490 30,000  Level Los Angeles Center
06:46PM 36.0056 -121.3217 326° Northwest 429 494 30,000  Level Oakland Center
06:47PM 36.1028 -121.4058 325° Northwest 427 491 30,000 -120 Level Oakland Center
06:48PM 36.2006 -121.4897 325° Northwest 428 493 29,800 -1,260 Descending Oakland Center
06:49PM 36.3022 -121.5761 326° Northwest 439 505 27,500 -2,280 Descending Oakland Center
06:50PM 36.4014 -121.6592 326° Northwest 434 499 25,200 -2,340 Descending Oakland Center
06:51PM 36.4833 -121.7333 324° Northwest 419 482 23,400 -2,280 Descending Northern Cal TRACON
06:52PM 36.5667 -121.8167 321° Northwest 402 463 21,300 -1,740 Descending Northern Cal TRACON
06:53PM 36.6500 -121.8833 327° Northwest 360 414 20,000 -1,380 Descending Northern Cal TRACON
06:54PM 36.7167 -121.9500 321° Northwest 340 391 18,700 -1,560 Descending Northern Cal TRACON
06:55PM 36.8167 -121.9833 345° North 337 388 17,100 -1,800 Descending Northern Cal TRACON
06:56PM 36.9000 -122.0000 351° North 329 379 15,100 -2,040 Descending Northern Cal TRACON
06:57PM 36.9833 -122.0333 342° North 320 368 13,100 -1,920 Descending Northern Cal TRACON
06:57PM 37.0267 -122.0389 354° North 323 372 12,200 -1,860 Descending Oakland Center
06:58PM 37.1081 -122.0617 347° North 307 353 10,300 -1,740 Descending Oakland Center
06:59PM 37.1858 -122.0803 349° North 291 335 8,700 -1,140 Descending Oakland Center
07:00PM 37.2592 -122.1014 347° North 275 316 8,000 -360 Descending Oakland Center
07:01PM 37.3317 -122.1194 349° North 269 310 8,000 -180 Level Oakland Center
07:02PM 37.4014 -122.1383 348° North 260 299 7,700 -720 Descending Oakland Center
07:03PM 37.4592 -122.1547 347° North 222 255 6,600 -1,740 Descending Oakland Center
07:04PM 37.5147 -122.1842 337° Northwest 188 216 4,200 -1,980 Descending Oakland Center
07:05PM 37.5517 -122.2175 324° Northwest 176 203 2,600 -1,320 Descending Oakland Center
07:06PM 37.5742 -122.2711 298° West 176 203 1,600 -960 Descending Oakland Center
07:07PM 37.5969 -122.3175 302° West 166 191 700 -720 Descending Oakland Center
07:08PM 37.6158 -122.3611 299° West 152 175 200 -540 Descending Oakland Center